sensor_id;sensor_type;location;lat;lon;timestamp;temperature;humidity
19258;DHT22;9763;48.780;9.212;2023-04-06T00:00:13;6.90;41.70
19258;DHT22;9763;48.780;9.212;2023-04-06T00:13:57;6.70;41.80
19258;DHT22;9763;48.780;9.212;2023-04-06T00:20:48;6.60;41.90
19258;DHT22;9763;48.780;9.212;2023-04-06T00:31:04;6.50;42.10
19258;DHT22;9763;48.780;9.212;2023-04-06T00:34:28;6.50;42.20
19258;DHT22;9763;48.780;9.212;2023-04-06T00:37:52;6.50;42.10
19258;DHT22;9763;48.780;9.212;2023-04-06T00:41:18;6.40;42.20
19258;DHT22;9763;48.780;9.212;2023-04-06T00:44:42;6.50;42.30
19258;DHT22;9763;48.780;9.212;2023-04-06T00:48:08;6.40;42.50
19258;DHT22;9763;48.780;9.212;2023-04-06T00:54:57;6.40;42.60
19258;DHT22;9763;48.780;9.212;2023-04-06T01:05:49;6.40;42.80
19258;DHT22;9763;48.780;9.212;2023-04-06T01:09:21;6.40;42.80
19258;DHT22;9763;48.780;9.212;2023-04-06T01:12:47;6.40;42.80
19258;DHT22;9763;48.780;9.212;2023-04-06T01:16:19;6.80;43.20
19258;DHT22;9763;48.780;9.212;2023-04-06T01:19:56;6.30;42.90
19258;DHT22;9763;48.780;9.212;2023-04-06T01:23:26;6.30;42.90
19258;DHT22;9763;48.780;9.212;2023-04-06T01:33:46;6.20;43.10
19258;DHT22;9763;48.780;9.212;2023-04-06T01:37:12;6.20;43.20
19258;DHT22;9763;48.780;9.212;2023-04-06T01:40:38;6.10;43.30
19258;DHT22;9763;48.780;9.212;2023-04-06T01:47:27;6.00;43.30
19258;DHT22;9763;48.780;9.212;2023-04-06T01:57:58;5.90;43.50
19258;DHT22;9763;48.780;9.212;2023-04-06T02:04:53;5.80;43.60
19258;DHT22;9763;48.780;9.212;2023-04-06T02:08:17;5.80;43.50
19258;DHT22;9763;48.780;9.212;2023-04-06T02:11:41;5.70;43.60
19258;DHT22;9763;48.780;9.212;2023-04-06T02:15:08;5.60;43.70
19258;DHT22;9763;48.780;9.212;2023-04-06T02:21:57;5.60;43.70
19258;DHT22;9763;48.780;9.212;2023-04-06T02:25:20;5.50;43.80
19258;DHT22;9763;48.780;9.212;2023-04-06T02:32:10;5.50;44.00
19258;DHT22;9763;48.780;9.212;2023-04-06T02:42:23;5.40;44.10
19258;DHT22;9763;48.780;9.212;2023-04-06T02:49:14;5.40;44.20
19258;DHT22;9763;48.780;9.212;2023-04-06T02:52:39;5.40;44.20
19258;DHT22;9763;48.780;9.212;2023-04-06T02:56:06;5.40;44.40
19258;DHT22;9763;48.780;9.212;2023-04-06T03:03:09;5.40;44.70
19258;DHT22;9763;48.780;9.212;2023-04-06T03:06:36;5.30;44.50
19258;DHT22;9763;48.780;9.212;2023-04-06T03:10:09;5.30;44.50
19258;DHT22;9763;48.780;9.212;2023-04-06T03:23:47;5.20;44.60
19258;DHT22;9763;48.780;9.212;2023-04-06T03:27:13;5.10;44.60
19258;DHT22;9763;48.780;9.212;2023-04-06T03:30:38;5.20;44.80
19258;DHT22;9763;48.780;9.212;2023-04-06T03:34:03;5.10;44.70
19258;DHT22;9763;48.780;9.212;2023-04-06T03:40:58;5.10;44.80
19258;DHT22;9763;48.780;9.212;2023-04-06T03:54:35;4.90;44.70
19258;DHT22;9763;48.780;9.212;2023-04-06T03:58:00;5.00;44.80
19258;DHT22;9763;48.780;9.212;2023-04-06T04:11:37;4.90;44.90
19258;DHT22;9763;48.780;9.212;2023-04-06T04:15:02;4.90;45.10
19258;DHT22;9763;48.780;9.212;2023-04-06T04:28:48;4.70;45.10
19258;DHT22;9763;48.780;9.212;2023-04-06T04:32:13;4.70;45.20
19258;DHT22;9763;48.780;9.212;2023-04-06T04:49:33;4.70;45.30
19258;DHT22;9763;48.780;9.212;2023-04-06T04:59:51;4.60;45.60
19258;DHT22;9763;48.780;9.212;2023-04-06T05:03:21;4.60;45.60
19258;DHT22;9763;48.780;9.212;2023-04-06T05:07:06;4.60;45.60
19258;DHT22;9763;48.780;9.212;2023-04-06T05:10:32;4.60;45.90
19258;DHT22;9763;48.780;9.212;2023-04-06T05:13:59;4.70;46.10
19258;DHT22;9763;48.780;9.212;2023-04-06T05:24:14;4.90;46.10
19258;DHT22;9763;48.780;9.212;2023-04-06T05:27:40;5.00;46.20
19258;DHT22;9763;48.780;9.212;2023-04-06T05:34:45;5.10;46.30
19258;DHT22;9763;48.780;9.212;2023-04-06T05:38:09;5.10;46.50
19258;DHT22;9763;48.780;9.212;2023-04-06T05:41:34;5.10;46.60
19258;DHT22;9763;48.780;9.212;2023-04-06T05:58:42;6.20;48.80
19258;DHT22;9763;48.780;9.212;2023-04-06T06:05:37;6.70;48.20
19258;DHT22;9763;48.780;9.212;2023-04-06T06:09:06;6.90;47.90
19258;DHT22;9763;48.780;9.212;2023-04-06T06:12:36;7.00;47.80
19258;DHT22;9763;48.780;9.212;2023-04-06T06:16:02;7.10;48.10
19258;DHT22;9763;48.780;9.212;2023-04-06T06:19:30;7.40;49.80
19258;DHT22;9763;48.780;9.212;2023-04-06T06:22:57;8.10;51.70
19258;DHT22;9763;48.780;9.212;2023-04-06T06:29:45;9.70;53.70
19258;DHT22;9763;48.780;9.212;2023-04-06T06:33:11;10.70;52.80
19258;DHT22;9763;48.780;9.212;2023-04-06T06:36:35;10.90;54.40
19258;DHT22;9763;48.780;9.212;2023-04-06T06:40:01;11.70;54.50
19258;DHT22;9763;48.780;9.212;2023-04-06T06:43:28;12.70;54.80
19258;DHT22;9763;48.780;9.212;2023-04-06T06:46:57;13.60;54.70
19258;DHT22;9763;48.780;9.212;2023-04-06T06:50:22;14.50;54.30
19258;DHT22;9763;48.780;9.212;2023-04-06T06:53:47;15.30;53.80
19258;DHT22;9763;48.780;9.212;2023-04-06T06:57:11;16.00;53.70
19258;DHT22;9763;48.780;9.212;2023-04-06T07:00:35;16.60;53.50
19258;DHT22;9763;48.780;9.212;2023-04-06T07:03:59;17.30;53.20
19258;DHT22;9763;48.780;9.212;2023-04-06T07:07:24;17.80;52.50
19258;DHT22;9763;48.780;9.212;2023-04-06T07:10:49;18.30;51.90
19258;DHT22;9763;48.780;9.212;2023-04-06T07:14:15;18.80;52.10
19258;DHT22;9763;48.780;9.212;2023-04-06T07:17:39;19.20;51.50
19258;DHT22;9763;48.780;9.212;2023-04-06T07:21:04;19.60;50.90
19258;DHT22;9763;48.780;9.212;2023-04-06T07:24:29;20.00;50.70
19258;DHT22;9763;48.780;9.212;2023-04-06T07:27:53;20.30;50.20
19258;DHT22;9763;48.780;9.212;2023-04-06T07:31:17;20.70;50.30
19258;DHT22;9763;48.780;9.212;2023-04-06T07:34:41;21.00;49.90
19258;DHT22;9763;48.780;9.212;2023-04-06T07:38:07;21.30;49.50
19258;DHT22;9763;48.780;9.212;2023-04-06T07:41:33;21.60;49.20
19258;DHT22;9763;48.780;9.212;2023-04-06T07:44:56;21.90;48.50
19258;DHT22;9763;48.780;9.212;2023-04-06T07:48:20;22.20;48.30
19258;DHT22;9763;48.780;9.212;2023-04-06T07:51:44;22.40;47.90
19258;DHT22;9763;48.780;9.212;2023-04-06T07:55:08;22.60;47.50
19258;DHT22;9763;48.780;9.212;2023-04-06T07:58:33;22.80;47.20
19258;DHT22;9763;48.780;9.212;2023-04-06T08:01:57;23.00;46.90
19258;DHT22;9763;48.780;9.212;2023-04-06T08:05:21;23.40;46.10
19258;DHT22;9763;48.780;9.212;2023-04-06T08:08:45;23.40;46.70
19258;DHT22;9763;48.780;9.212;2023-04-06T08:12:08;23.70;46.80
19258;DHT22;9763;48.780;9.212;2023-04-06T08:15:34;24.00;46.80
19258;DHT22;9763;48.780;9.212;2023-04-06T08:18:57;24.30;46.30
19258;DHT22;9763;48.780;9.212;2023-04-06T08:22:21;24.50;45.90
19258;DHT22;9763;48.780;9.212;2023-04-06T08:25:45;24.80;45.80
19258;DHT22;9763;48.780;9.212;2023-04-06T08:29:09;25.00;45.40
19258;DHT22;9763;48.780;9.212;2023-04-06T08:32:34;25.20;45.00
19258;DHT22;9763;48.780;9.212;2023-04-06T08:35:58;25.50;44.70
19258;DHT22;9763;48.780;9.212;2023-04-06T08:39:22;25.70;44.10
19258;DHT22;9763;48.780;9.212;2023-04-06T08:42:52;25.90;43.60
19258;DHT22;9763;48.780;9.212;2023-04-06T08:46:17;26.10;43.00
19258;DHT22;9763;48.780;9.212;2023-04-06T08:49:44;26.20;43.40
19258;DHT22;9763;48.780;9.212;2023-04-06T08:53:08;26.30;42.00
19258;DHT22;9763;48.780;9.212;2023-04-06T08:56:38;26.40;42.30
19258;DHT22;9763;48.780;9.212;2023-04-06T09:00:03;26.50;41.50
19258;DHT22;9763;48.780;9.212;2023-04-06T09:03:29;26.60;41.50
19258;DHT22;9763;48.780;9.212;2023-04-06T09:06:56;26.70;40.70
19258;DHT22;9763;48.780;9.212;2023-04-06T09:10:20;26.70;40.10
19258;DHT22;9763;48.780;9.212;2023-04-06T09:13:46;26.80;39.90
19258;DHT22;9763;48.780;9.212;2023-04-06T09:17:20;26.70;39.50
19258;DHT22;9763;48.780;9.212;2023-04-06T09:20:44;26.70;37.60
19258;DHT22;9763;48.780;9.212;2023-04-06T09:24:09;26.70;39.00
19258;DHT22;9763;48.780;9.212;2023-04-06T09:27:35;26.70;38.50
19258;DHT22;9763;48.780;9.212;2023-04-06T09:30:59;26.80;38.70
19258;DHT22;9763;48.780;9.212;2023-04-06T09:34:23;27.00;38.90
19258;DHT22;9763;48.780;9.212;2023-04-06T09:37:47;27.10;38.60
19258;DHT22;9763;48.780;9.212;2023-04-06T09:41:21;27.30;38.10
19258;DHT22;9763;48.780;9.212;2023-04-06T09:44:46;27.40;36.00
19258;DHT22;9763;48.780;9.212;2023-04-06T09:48:10;27.40;37.00
19258;DHT22;9763;48.780;9.212;2023-04-06T09:51:37;27.50;36.00
19258;DHT22;9763;48.780;9.212;2023-04-06T09:55:03;27.50;36.00
19258;DHT22;9763;48.780;9.212;2023-04-06T09:58:34;27.50;36.00
19258;DHT22;9763;48.780;9.212;2023-04-06T10:02:01;27.60;35.60
19258;DHT22;9763;48.780;9.212;2023-04-06T10:05:35;27.70;35.70
19258;DHT22;9763;48.780;9.212;2023-04-06T10:09:05;27.70;34.10
19258;DHT22;9763;48.780;9.212;2023-04-06T10:12:31;27.70;34.60
19258;DHT22;9763;48.780;9.212;2023-04-06T10:15:57;27.60;34.40
19258;DHT22;9763;48.780;9.212;2023-04-06T10:19:26;27.60;34.00
19258;DHT22;9763;48.780;9.212;2023-04-06T10:23:00;27.70;34.00
19258;DHT22;9763;48.780;9.212;2023-04-06T10:26:28;27.70;33.70
19258;DHT22;9763;48.780;9.212;2023-04-06T10:29:52;27.70;34.00
19258;DHT22;9763;48.780;9.212;2023-04-06T10:33:18;27.80;34.00
19258;DHT22;9763;48.780;9.212;2023-04-06T10:36:43;27.80;33.90
19258;DHT22;9763;48.780;9.212;2023-04-06T10:40:18;28.00;32.70
19258;DHT22;9763;48.780;9.212;2023-04-06T10:43:43;28.00;31.50
19258;DHT22;9763;48.780;9.212;2023-04-06T10:47:16;28.00;32.40
19258;DHT22;9763;48.780;9.212;2023-04-06T10:50:44;28.00;32.20
19258;DHT22;9763;48.780;9.212;2023-04-06T10:54:09;28.00;31.90
19258;DHT22;9763;48.780;9.212;2023-04-06T10:57:35;28.00;31.20
19258;DHT22;9763;48.780;9.212;2023-04-06T11:00:59;27.90;31.10
19258;DHT22;9763;48.780;9.212;2023-04-06T11:04:25;27.90;29.80
19258;DHT22;9763;48.780;9.212;2023-04-06T11:07:50;27.70;29.70
19258;DHT22;9763;48.780;9.212;2023-04-06T11:11:15;27.40;29.60
19258;DHT22;9763;48.780;9.212;2023-04-06T11:14:40;27.10;29.70
19258;DHT22;9763;48.780;9.212;2023-04-06T11:21:33;26.80;29.50
19258;DHT22;9763;48.780;9.212;2023-04-06T11:25:07;26.70;30.00
19258;DHT22;9763;48.780;9.212;2023-04-06T11:28:36;26.70;30.00
19258;DHT22;9763;48.780;9.212;2023-04-06T11:32:02;26.70;29.60
19258;DHT22;9763;48.780;9.212;2023-04-06T11:35:26;26.70;30.00
19258;DHT22;9763;48.780;9.212;2023-04-06T11:38:50;26.70;29.80
19258;DHT22;9763;48.780;9.212;2023-04-06T11:42:21;26.70;30.10
19258;DHT22;9763;48.780;9.212;2023-04-06T11:52:39;27.00;29.70
19258;DHT22;9763;48.780;9.212;2023-04-06T11:59:30;27.10;29.60
19258;DHT22;9763;48.780;9.212;2023-04-06T12:02:55;27.10;29.50
19258;DHT22;9763;48.780;9.212;2023-04-06T12:06:19;27.10;29.10
19258;DHT22;9763;48.780;9.212;2023-04-06T12:09:43;27.00;28.40
19258;DHT22;9763;48.780;9.212;2023-04-06T12:13:06;26.70;26.90
19258;DHT22;9763;48.780;9.212;2023-04-06T12:16:31;26.10;27.10
19258;DHT22;9763;48.780;9.212;2023-04-06T12:23:30;25.40;28.00
19258;DHT22;9763;48.780;9.212;2023-04-06T12:33:56;25.10;28.40
19258;DHT22;9763;48.780;9.212;2023-04-06T12:47:33;25.00;28.20
19258;DHT22;9763;48.780;9.212;2023-04-06T12:51:01;24.90;28.10
19258;DHT22;9763;48.780;9.212;2023-04-06T12:57:50;24.80;27.80
19258;DHT22;9763;48.780;9.212;2023-04-06T13:08:03;24.40;28.00
19258;DHT22;9763;48.780;9.212;2023-04-06T13:11:27;24.30;28.10
19258;DHT22;9763;48.780;9.212;2023-04-06T13:21:39;23.70;27.10
19258;DHT22;9763;48.780;9.212;2023-04-06T13:25:04;23.40;27.10
19258;DHT22;9763;48.780;9.212;2023-04-06T13:42:07;22.10;27.30
19258;DHT22;9763;48.780;9.212;2023-04-06T13:52:20;21.80;26.80
19258;DHT22;9763;48.780;9.212;2023-04-06T13:55:52;21.60;27.10
19258;DHT22;9763;48.780;9.212;2023-04-06T13:59:17;21.50;27.30
19258;DHT22;9763;48.780;9.212;2023-04-06T14:02:41;21.40;27.20
19258;DHT22;9763;48.780;9.212;2023-04-06T14:06:10;21.40;27.10
19258;DHT22;9763;48.780;9.212;2023-04-06T14:16:40;20.80;26.90
19258;DHT22;9763;48.780;9.212;2023-04-06T14:20:07;20.70;26.80
19258;DHT22;9763;48.780;9.212;2023-04-06T14:30:24;20.10;27.10
19258;DHT22;9763;48.780;9.212;2023-04-06T14:33:52;20.00;27.30
19258;DHT22;9763;48.780;9.212;2023-04-06T14:44:04;19.70;26.60
19258;DHT22;9763;48.780;9.212;2023-04-06T14:50:53;19.50;27.30
19258;DHT22;9763;48.780;9.212;2023-04-06T15:01:06;19.50;27.50
19258;DHT22;9763;48.780;9.212;2023-04-06T15:07:58;19.50;27.20
19258;DHT22;9763;48.780;9.212;2023-04-06T15:18:10;19.30;27.50
19258;DHT22;9763;48.780;9.212;2023-04-06T15:21:34;19.20;27.50
19258;DHT22;9763;48.780;9.212;2023-04-06T15:24:59;19.20;27.60
19258;DHT22;9763;48.780;9.212;2023-04-06T15:31:46;19.10;27.60
19258;DHT22;9763;48.780;9.212;2023-04-06T15:35:11;19.10;27.60
19258;DHT22;9763;48.780;9.212;2023-04-06T15:38:34;19.10;27.60
19258;DHT22;9763;48.780;9.212;2023-04-06T15:41:59;19.00;27.60
19258;DHT22;9763;48.780;9.212;2023-04-06T15:48:47;18.80;27.50
19258;DHT22;9763;48.780;9.212;2023-04-06T15:59:00;18.70;27.80
19258;DHT22;9763;48.780;9.212;2023-04-06T16:02:25;18.70;27.90
19258;DHT22;9763;48.780;9.212;2023-04-06T16:05:49;18.70;28.00
19258;DHT22;9763;48.780;9.212;2023-04-06T16:09:29;18.60;28.00
19258;DHT22;9763;48.780;9.212;2023-04-06T16:12:53;18.60;27.80
19258;DHT22;9763;48.780;9.212;2023-04-06T16:16:17;18.50;27.80
19258;DHT22;9763;48.780;9.212;2023-04-06T16:33:19;18.40;28.00
19258;DHT22;9763;48.780;9.212;2023-04-06T16:36:45;18.40;28.00
19258;DHT22;9763;48.780;9.212;2023-04-06T16:40:09;18.30;28.00
19258;DHT22;9763;48.780;9.212;2023-04-06T16:47:22;18.20;28.00
19258;DHT22;9763;48.780;9.212;2023-04-06T16:51:12;18.10;28.10
19258;DHT22;9763;48.780;9.212;2023-04-06T16:54:37;18.00;28.10
19258;DHT22;9763;48.780;9.212;2023-04-06T16:58:00;17.90;28.10
19258;DHT22;9763;48.780;9.212;2023-04-06T17:01:25;17.70;28.00
19258;DHT22;9763;48.780;9.212;2023-04-06T17:04:50;18.70;28.80
19258;DHT22;9763;48.780;9.212;2023-04-06T17:08:15;17.70;28.20
19258;DHT22;9763;48.780;9.212;2023-04-06T17:11:40;17.50;28.20
19258;DHT22;9763;48.780;9.212;2023-04-06T17:15:09;17.20;28.30
19258;DHT22;9763;48.780;9.212;2023-04-06T17:18:33;17.00;28.40
19258;DHT22;9763;48.780;9.212;2023-04-06T17:25:22;16.50;28.60
19258;DHT22;9763;48.780;9.212;2023-04-06T17:28:45;16.30;28.40
19258;DHT22;9763;48.780;9.212;2023-04-06T17:32:10;16.20;28.30
19258;DHT22;9763;48.780;9.212;2023-04-06T17:35:33;16.00;28.30
19258;DHT22;9763;48.780;9.212;2023-04-06T17:42:22;15.80;28.50
19258;DHT22;9763;48.780;9.212;2023-04-06T17:45:48;15.70;28.50
19258;DHT22;9763;48.780;9.212;2023-04-06T17:49:12;15.60;28.40
19258;DHT22;9763;48.780;9.212;2023-04-06T17:56:01;15.50;28.50
19258;DHT22;9763;48.780;9.212;2023-04-06T17:59:26;15.40;28.60
19258;DHT22;9763;48.780;9.212;2023-04-06T18:06:15;15.30;28.70
19258;DHT22;9763;48.780;9.212;2023-04-06T18:13:03;15.20;28.90
19258;DHT22;9763;48.780;9.212;2023-04-06T18:16:27;15.10;29.00
19258;DHT22;9763;48.780;9.212;2023-04-06T18:19:51;15.10;29.10
19258;DHT22;9763;48.780;9.212;2023-04-06T18:33:28;14.90;29.40
19258;DHT22;9763;48.780;9.212;2023-04-06T18:40:30;14.90;29.60
19258;DHT22;9763;48.780;9.212;2023-04-06T18:50:52;14.90;29.80
19258;DHT22;9763;48.780;9.212;2023-04-06T19:04:28;14.70;29.80
19258;DHT22;9763;48.780;9.212;2023-04-06T19:07:53;14.80;29.90
19258;DHT22;9763;48.780;9.212;2023-04-06T19:14:44;14.80;30.00
19258;DHT22;9763;48.780;9.212;2023-04-06T19:21:36;14.70;30.00
19258;DHT22;9763;48.780;9.212;2023-04-06T19:25:01;14.70;30.10
19258;DHT22;9763;48.780;9.212;2023-04-06T19:31:49;14.60;30.20
19258;DHT22;9763;48.780;9.212;2023-04-06T19:35:13;14.60;30.30
19258;DHT22;9763;48.780;9.212;2023-04-06T19:38:36;14.60;30.30
19258;DHT22;9763;48.780;9.212;2023-04-06T19:42:02;14.60;30.40
19258;DHT22;9763;48.780;9.212;2023-04-06T19:48:50;14.60;30.50
19258;DHT22;9763;48.780;9.212;2023-04-06T19:52:14;14.60;30.60
19258;DHT22;9763;48.780;9.212;2023-04-06T19:55:38;14.60;30.70
19258;DHT22;9763;48.780;9.212;2023-04-06T19:59:03;14.50;30.80
19258;DHT22;9763;48.780;9.212;2023-04-06T20:05:50;14.40;31.00
19258;DHT22;9763;48.780;9.212;2023-04-06T20:12:38;14.30;31.30
19258;DHT22;9763;48.780;9.212;2023-04-06T20:16:04;14.20;31.50
19258;DHT22;9763;48.780;9.212;2023-04-06T20:19:28;14.20;31.70
19258;DHT22;9763;48.780;9.212;2023-04-06T20:29:41;14.00;32.40
19258;DHT22;9763;48.780;9.212;2023-04-06T20:33:06;13.90;32.30
19258;DHT22;9763;48.780;9.212;2023-04-06T20:36:30;13.90;32.80
19258;DHT22;9763;48.780;9.212;2023-04-06T20:39:55;13.80;33.00
19258;DHT22;9763;48.780;9.212;2023-04-06T20:46:47;13.70;34.30
19258;DHT22;9763;48.780;9.212;2023-04-06T20:50:12;13.70;34.00
19258;DHT22;9763;48.780;9.212;2023-04-06T21:00:24;13.50;35.00
19258;DHT22;9763;48.780;9.212;2023-04-06T21:07:13;13.40;34.80
19258;DHT22;9763;48.780;9.212;2023-04-06T21:10:37;13.30;34.80
19258;DHT22;9763;48.780;9.212;2023-04-06T21:14:00;13.30;35.30
19258;DHT22;9763;48.780;9.212;2023-04-06T21:20:48;13.20;35.80
19258;DHT22;9763;48.780;9.212;2023-04-06T21:24:13;13.20;35.80
19258;DHT22;9763;48.780;9.212;2023-04-06T21:31:05;13.20;37.00
19258;DHT22;9763;48.780;9.212;2023-04-06T21:34:29;13.10;36.60
19258;DHT22;9763;48.780;9.212;2023-04-06T21:41:18;12.90;37.00
19258;DHT22;9763;48.780;9.212;2023-04-06T21:44:42;12.90;37.30
19258;DHT22;9763;48.780;9.212;2023-04-06T21:48:06;12.80;38.50
19258;DHT22;9763;48.780;9.212;2023-04-06T21:54:53;12.60;38.00
19258;DHT22;9763;48.780;9.212;2023-04-06T21:58:19;12.60;40.90
19258;DHT22;9763;48.780;9.212;2023-04-06T22:01:43;12.50;43.80
19258;DHT22;9763;48.780;9.212;2023-04-06T22:05:07;12.50;45.80
19258;DHT22;9763;48.780;9.212;2023-04-06T22:08:31;12.40;47.60
19258;DHT22;9763;48.780;9.212;2023-04-06T22:11:55;12.30;48.50
19258;DHT22;9763;48.780;9.212;2023-04-06T22:15:20;12.20;49.80
19258;DHT22;9763;48.780;9.212;2023-04-06T22:18:44;12.10;50.90
19258;DHT22;9763;48.780;9.212;2023-04-06T22:32:22;11.90;54.10
19258;DHT22;9763;48.780;9.212;2023-04-06T22:49:22;11.80;56.30
19258;DHT22;9763;48.780;9.212;2023-04-06T22:52:45;11.80;56.50
19258;DHT22;9763;48.780;9.212;2023-04-06T22:56:09;11.70;56.60
19258;DHT22;9763;48.780;9.212;2023-04-06T23:06:22;11.20;57.30
19258;DHT22;9763;48.780;9.212;2023-04-06T23:09:45;11.60;58.00
19258;DHT22;9763;48.780;9.212;2023-04-06T23:23:22;11.60;59.30
19258;DHT22;9763;48.780;9.212;2023-04-06T23:26:45;11.60;59.40
19258;DHT22;9763;48.780;9.212;2023-04-06T23:30:09;11.40;59.60
19258;DHT22;9763;48.780;9.212;2023-04-06T23:40:23;11.40;60.50
19258;DHT22;9763;48.780;9.212;2023-04-06T23:53:59;11.20;61.60
19258;DHT22;9763;48.780;9.212;2023-04-06T23:57:27;11.20;62.00
